sensor_id;sensor_type;location;lat;lon;timestamp;temperature;humidity
40676;DHT22;26359;48.750;9.314;2023-04-24T00:02:08;11.70;99.90
40676;DHT22;26359;48.750;9.314;2023-04-24T00:04:37;11.70;99.90
40676;DHT22;26359;48.750;9.314;2023-04-24T00:07:06;11.70;99.90
40676;DHT22;26359;48.750;9.314;2023-04-24T00:09:32;11.70;99.90
40676;DHT22;26359;48.750;9.314;2023-04-24T00:11:58;11.70;99.90
40676;DHT22;26359;48.750;9.314;2023-04-24T00:14:23;11.70;99.90
40676;DHT22;26359;48.750;9.314;2023-04-24T00:16:49;11.60;99.90
40676;DHT22;26359;48.750;9.314;2023-04-24T00:19:15;11.60;99.90
40676;DHT22;26359;48.750;9.314;2023-04-24T00:21:40;11.70;99.90
40676;DHT22;26359;48.750;9.314;2023-04-24T00:24:07;11.70;99.90
40676;DHT22;26359;48.750;9.314;2023-04-24T00:26:34;11.70;99.90
40676;DHT22;26359;48.750;9.314;2023-04-24T00:29:00;11.70;99.90
40676;DHT22;26359;48.750;9.314;2023-04-24T00:31:25;11.70;99.90
40676;DHT22;26359;48.750;9.314;2023-04-24T00:33:51;11.70;99.90
40676;DHT22;26359;48.750;9.314;2023-04-24T00:36:16;11.60;99.90
40676;DHT22;26359;48.750;9.314;2023-04-24T00:38:44;11.70;99.90
40676;DHT22;26359;48.750;9.314;2023-04-24T00:41:10;11.60;99.90
40676;DHT22;26359;48.750;9.314;2023-04-24T00:43:35;11.70;99.90
40676;DHT22;26359;48.750;9.314;2023-04-24T00:46:01;11.70;99.90
40676;DHT22;26359;48.750;9.314;2023-04-24T00:48:27;11.70;99.90
40676;DHT22;26359;48.750;9.314;2023-04-24T00:50:53;11.70;99.90
40676;DHT22;26359;48.750;9.314;2023-04-24T00:53:19;11.70;99.90
40676;DHT22;26359;48.750;9.314;2023-04-24T00:55:45;11.70;99.90
40676;DHT22;26359;48.750;9.314;2023-04-24T00:58:11;11.80;99.90
40676;DHT22;26359;48.750;9.314;2023-04-24T01:00:37;11.80;99.90
40676;DHT22;26359;48.750;9.314;2023-04-24T01:03:04;11.80;99.90
40676;DHT22;26359;48.750;9.314;2023-04-24T01:05:31;11.80;99.90
40676;DHT22;26359;48.750;9.314;2023-04-24T01:07:58;11.80;99.90
40676;DHT22;26359;48.750;9.314;2023-04-24T01:10:25;11.80;99.90
40676;DHT22;26359;48.750;9.314;2023-04-24T01:12:53;11.80;99.90
40676;DHT22;26359;48.750;9.314;2023-04-24T01:15:18;11.80;99.90
40676;DHT22;26359;48.750;9.314;2023-04-24T01:17:44;11.70;99.90
40676;DHT22;26359;48.750;9.314;2023-04-24T01:20:10;11.70;99.90
40676;DHT22;26359;48.750;9.314;2023-04-24T01:22:36;11.70;99.90
40676;DHT22;26359;48.750;9.314;2023-04-24T01:25:02;11.70;99.90
40676;DHT22;26359;48.750;9.314;2023-04-24T01:27:28;11.70;99.90
40676;DHT22;26359;48.750;9.314;2023-04-24T01:29:54;11.70;99.90
40676;DHT22;26359;48.750;9.314;2023-04-24T01:32:20;11.80;99.90
40676;DHT22;26359;48.750;9.314;2023-04-24T01:34:46;11.80;99.90
40676;DHT22;26359;48.750;9.314;2023-04-24T01:37:12;11.80;99.90
40676;DHT22;26359;48.750;9.314;2023-04-24T01:39:37;11.80;99.90
40676;DHT22;26359;48.750;9.314;2023-04-24T01:42:04;11.80;99.90
40676;DHT22;26359;48.750;9.314;2023-04-24T01:44:30;11.80;99.90
40676;DHT22;26359;48.750;9.314;2023-04-24T01:46:56;11.80;99.90
40676;DHT22;26359;48.750;9.314;2023-04-24T01:49:22;11.70;99.90
40676;DHT22;26359;48.750;9.314;2023-04-24T01:51:48;11.70;99.90
40676;DHT22;26359;48.750;9.314;2023-04-24T01:54:14;11.70;99.90
40676;DHT22;26359;48.750;9.314;2023-04-24T01:56:41;11.70;99.90
40676;DHT22;26359;48.750;9.314;2023-04-24T01:59:10;11.70;99.90
40676;DHT22;26359;48.750;9.314;2023-04-24T02:01:36;11.70;99.90
40676;DHT22;26359;48.750;9.314;2023-04-24T02:04:02;11.60;99.90
40676;DHT22;26359;48.750;9.314;2023-04-24T02:06:28;11.60;99.90
40676;DHT22;26359;48.750;9.314;2023-04-24T02:08:54;11.60;99.90
40676;DHT22;26359;48.750;9.314;2023-04-24T02:11:19;11.60;99.90
40676;DHT22;26359;48.750;9.314;2023-04-24T02:13:45;11.60;99.90
40676;DHT22;26359;48.750;9.314;2023-04-24T02:16:10;11.60;99.90
40676;DHT22;26359;48.750;9.314;2023-04-24T02:18:36;11.60;99.90
40676;DHT22;26359;48.750;9.314;2023-04-24T02:21:01;11.60;99.90
40676;DHT22;26359;48.750;9.314;2023-04-24T02:23:27;11.60;99.90
40676;DHT22;26359;48.750;9.314;2023-04-24T02:25:53;11.60;99.90
40676;DHT22;26359;48.750;9.314;2023-04-24T02:28:19;11.60;99.90
40676;DHT22;26359;48.750;9.314;2023-04-24T02:30:44;11.60;99.90
40676;DHT22;26359;48.750;9.314;2023-04-24T02:33:11;11.60;99.90
40676;DHT22;26359;48.750;9.314;2023-04-24T02:35:36;11.60;99.90
40676;DHT22;26359;48.750;9.314;2023-04-24T02:38:02;11.50;99.90
40676;DHT22;26359;48.750;9.314;2023-04-24T02:40:28;11.50;99.90
40676;DHT22;26359;48.750;9.314;2023-04-24T02:42:54;11.50;99.90
40676;DHT22;26359;48.750;9.314;2023-04-24T02:45:19;11.50;99.90
40676;DHT22;26359;48.750;9.314;2023-04-24T02:47:45;11.50;99.90
40676;DHT22;26359;48.750;9.314;2023-04-24T02:50:10;11.40;99.90
40676;DHT22;26359;48.750;9.314;2023-04-24T02:52:36;11.40;99.90
40676;DHT22;26359;48.750;9.314;2023-04-24T02:55:02;11.40;99.90
40676;DHT22;26359;48.750;9.314;2023-04-24T02:57:27;11.40;99.90
40676;DHT22;26359;48.750;9.314;2023-04-24T02:59:53;11.40;99.90
40676;DHT22;26359;48.750;9.314;2023-04-24T03:02:18;11.40;99.90
40676;DHT22;26359;48.750;9.314;2023-04-24T03:04:44;11.40;99.90
40676;DHT22;26359;48.750;9.314;2023-04-24T03:07:09;11.40;99.90
40676;DHT22;26359;48.750;9.314;2023-04-24T03:09:35;11.40;99.90
40676;DHT22;26359;48.750;9.314;2023-04-24T03:12:00;11.40;99.90
40676;DHT22;26359;48.750;9.314;2023-04-24T03:14:26;11.40;99.90
40676;DHT22;26359;48.750;9.314;2023-04-24T03:16:51;11.40;99.90
40676;DHT22;26359;48.750;9.314;2023-04-24T03:19:17;11.40;99.90
40676;DHT22;26359;48.750;9.314;2023-04-24T03:21:42;11.40;99.90
40676;DHT22;26359;48.750;9.314;2023-04-24T03:24:08;11.40;99.90
40676;DHT22;26359;48.750;9.314;2023-04-24T03:26:34;11.40;99.90
40676;DHT22;26359;48.750;9.314;2023-04-24T03:29:00;11.40;99.90
40676;DHT22;26359;48.750;9.314;2023-04-24T03:31:26;11.30;99.90
40676;DHT22;26359;48.750;9.314;2023-04-24T03:33:51;11.30;99.90
40676;DHT22;26359;48.750;9.314;2023-04-24T03:36:17;11.30;99.90
40676;DHT22;26359;48.750;9.314;2023-04-24T03:38:44;11.30;99.90
40676;DHT22;26359;48.750;9.314;2023-04-24T03:41:10;11.30;99.90
40676;DHT22;26359;48.750;9.314;2023-04-24T03:43:36;11.30;99.90
40676;DHT22;26359;48.750;9.314;2023-04-24T03:46:03;11.20;99.90
40676;DHT22;26359;48.750;9.314;2023-04-24T03:48:29;11.20;99.90
40676;DHT22;26359;48.750;9.314;2023-04-24T03:50:55;11.10;99.90
40676;DHT22;26359;48.750;9.314;2023-04-24T03:53:20;11.20;99.90
40676;DHT22;26359;48.750;9.314;2023-04-24T03:55:46;11.10;99.90
40676;DHT22;26359;48.750;9.314;2023-04-24T03:58:12;11.10;99.90
40676;DHT22;26359;48.750;9.314;2023-04-24T04:00:39;11.10;99.90
40676;DHT22;26359;48.750;9.314;2023-04-24T04:03:05;11.10;99.90
40676;DHT22;26359;48.750;9.314;2023-04-24T04:05:31;11.10;99.90
40676;DHT22;26359;48.750;9.314;2023-04-24T04:07:56;11.00;99.90
40676;DHT22;26359;48.750;9.314;2023-04-24T04:10:22;11.00;99.90
40676;DHT22;26359;48.750;9.314;2023-04-24T04:12:48;10.90;99.90
40676;DHT22;26359;48.750;9.314;2023-04-24T04:15:13;10.90;99.90
40676;DHT22;26359;48.750;9.314;2023-04-24T04:17:39;10.90;99.90
40676;DHT22;26359;48.750;9.314;2023-04-24T04:20:05;10.80;99.90
40676;DHT22;26359;48.750;9.314;2023-04-24T04:22:36;10.80;99.90
40676;DHT22;26359;48.750;9.314;2023-04-24T04:25:02;10.80;99.90
40676;DHT22;26359;48.750;9.314;2023-04-24T04:27:28;10.80;99.90
40676;DHT22;26359;48.750;9.314;2023-04-24T04:29:54;10.80;99.90
40676;DHT22;26359;48.750;9.314;2023-04-24T04:32:21;10.80;99.90
40676;DHT22;26359;48.750;9.314;2023-04-24T04:34:47;10.80;99.90
40676;DHT22;26359;48.750;9.314;2023-04-24T04:37:14;10.80;99.90
40676;DHT22;26359;48.750;9.314;2023-04-24T04:39:40;10.80;99.90
40676;DHT22;26359;48.750;9.314;2023-04-24T04:42:06;10.90;99.90
40676;DHT22;26359;48.750;9.314;2023-04-24T04:44:32;10.90;99.90
40676;DHT22;26359;48.750;9.314;2023-04-24T04:46:58;10.80;99.90
40676;DHT22;26359;48.750;9.314;2023-04-24T04:49:23;10.70;99.90
40676;DHT22;26359;48.750;9.314;2023-04-24T04:51:49;10.60;99.90
40676;DHT22;26359;48.750;9.314;2023-04-24T04:54:16;10.50;99.90
40676;DHT22;26359;48.750;9.314;2023-04-24T04:56:41;10.40;99.90
40676;DHT22;26359;48.750;9.314;2023-04-24T04:59:07;10.40;99.90
40676;DHT22;26359;48.750;9.314;2023-04-24T05:01:33;10.20;99.90
40676;DHT22;26359;48.750;9.314;2023-04-24T05:03:58;10.30;99.90
40676;DHT22;26359;48.750;9.314;2023-04-24T05:06:24;10.30;99.90
40676;DHT22;26359;48.750;9.314;2023-04-24T05:08:50;10.30;99.90
40676;DHT22;26359;48.750;9.314;2023-04-24T05:11:16;10.30;99.90
40676;DHT22;26359;48.750;9.314;2023-04-24T05:13:42;10.30;99.90
40676;DHT22;26359;48.750;9.314;2023-04-24T05:16:07;10.20;99.90
40676;DHT22;26359;48.750;9.314;2023-04-24T05:18:33;10.20;99.90
40676;DHT22;26359;48.750;9.314;2023-04-24T05:20:58;10.20;99.90
40676;DHT22;26359;48.750;9.314;2023-04-24T05:23:24;10.20;99.90
40676;DHT22;26359;48.750;9.314;2023-04-24T05:25:49;10.30;99.90
40676;DHT22;26359;48.750;9.314;2023-04-24T05:28:15;10.50;99.90
40676;DHT22;26359;48.750;9.314;2023-04-24T05:30:40;10.70;99.90
40676;DHT22;26359;48.750;9.314;2023-04-24T05:33:06;10.70;99.90
40676;DHT22;26359;48.750;9.314;2023-04-24T05:35:32;10.50;99.90
40676;DHT22;26359;48.750;9.314;2023-04-24T05:37:57;10.60;99.90
40676;DHT22;26359;48.750;9.314;2023-04-24T05:40:23;10.50;99.90
40676;DHT22;26359;48.750;9.314;2023-04-24T05:42:48;10.50;99.90
40676;DHT22;26359;48.750;9.314;2023-04-24T05:45:14;10.40;99.90
40676;DHT22;26359;48.750;9.314;2023-04-24T05:47:42;10.40;99.90
40676;DHT22;26359;48.750;9.314;2023-04-24T05:50:09;10.40;99.90
40676;DHT22;26359;48.750;9.314;2023-04-24T05:52:35;10.40;99.90
40676;DHT22;26359;48.750;9.314;2023-04-24T05:55:00;10.50;99.90
40676;DHT22;26359;48.750;9.314;2023-04-24T05:57:26;10.50;99.90
40676;DHT22;26359;48.750;9.314;2023-04-24T05:59:52;10.50;99.90
40676;DHT22;26359;48.750;9.314;2023-04-24T06:02:17;10.50;99.90
40676;DHT22;26359;48.750;9.314;2023-04-24T06:04:43;10.50;99.90
40676;DHT22;26359;48.750;9.314;2023-04-24T06:07:10;10.50;99.90
40676;DHT22;26359;48.750;9.314;2023-04-24T06:09:36;10.30;99.90
40676;DHT22;26359;48.750;9.314;2023-04-24T06:12:02;10.30;99.90
40676;DHT22;26359;48.750;9.314;2023-04-24T06:14:28;10.30;99.90
40676;DHT22;26359;48.750;9.314;2023-04-24T06:16:53;10.30;99.90
40676;DHT22;26359;48.750;9.314;2023-04-24T06:19:19;10.30;99.90
40676;DHT22;26359;48.750;9.314;2023-04-24T06:21:44;10.30;99.90
40676;DHT22;26359;48.750;9.314;2023-04-24T06:24:10;10.30;99.90
40676;DHT22;26359;48.750;9.314;2023-04-24T06:26:36;10.30;99.90
40676;DHT22;26359;48.750;9.314;2023-04-24T06:29:01;10.30;99.90
40676;DHT22;26359;48.750;9.314;2023-04-24T06:31:27;10.30;99.90
40676;DHT22;26359;48.750;9.314;2023-04-24T06:33:52;10.40;99.90
40676;DHT22;26359;48.750;9.314;2023-04-24T06:36:18;10.30;99.90
40676;DHT22;26359;48.750;9.314;2023-04-24T06:38:43;10.30;99.90
40676;DHT22;26359;48.750;9.314;2023-04-24T06:41:10;10.40;99.90
40676;DHT22;26359;48.750;9.314;2023-04-24T06:43:35;10.50;99.90
40676;DHT22;26359;48.750;9.314;2023-04-24T06:46:01;10.50;99.90
40676;DHT22;26359;48.750;9.314;2023-04-24T06:48:28;10.50;99.90
40676;DHT22;26359;48.750;9.314;2023-04-24T06:50:54;10.60;99.90
40676;DHT22;26359;48.750;9.314;2023-04-24T06:53:19;10.60;99.90
40676;DHT22;26359;48.750;9.314;2023-04-24T06:55:45;10.70;99.90
40676;DHT22;26359;48.750;9.314;2023-04-24T06:58:11;10.60;99.90
40676;DHT22;26359;48.750;9.314;2023-04-24T07:00:37;10.60;99.90
40676;DHT22;26359;48.750;9.314;2023-04-24T07:03:03;10.80;99.90
40676;DHT22;26359;48.750;9.314;2023-04-24T07:05:31;10.80;99.90
40676;DHT22;26359;48.750;9.314;2023-04-24T07:07:56;11.00;99.90
40676;DHT22;26359;48.750;9.314;2023-04-24T07:10:24;11.10;99.90
40676;DHT22;26359;48.750;9.314;2023-04-24T07:12:49;11.20;99.90
40676;DHT22;26359;48.750;9.314;2023-04-24T07:15:15;11.40;99.90
40676;DHT22;26359;48.750;9.314;2023-04-24T07:17:41;11.50;99.90
40676;DHT22;26359;48.750;9.314;2023-04-24T07:20:10;11.80;99.90
40676;DHT22;26359;48.750;9.314;2023-04-24T07:22:37;11.80;99.90
40676;DHT22;26359;48.750;9.314;2023-04-24T07:25:03;11.70;99.90
40676;DHT22;26359;48.750;9.314;2023-04-24T07:27:28;11.70;99.90
40676;DHT22;26359;48.750;9.314;2023-04-24T07:29:54;11.70;99.90
40676;DHT22;26359;48.750;9.314;2023-04-24T07:32:19;11.80;99.90
40676;DHT22;26359;48.750;9.314;2023-04-24T07:34:45;11.70;99.90
40676;DHT22;26359;48.750;9.314;2023-04-24T07:37:11;11.50;99.90
40676;DHT22;26359;48.750;9.314;2023-04-24T07:39:36;11.20;99.90
40676;DHT22;26359;48.750;9.314;2023-04-24T07:42:02;11.10;99.90
40676;DHT22;26359;48.750;9.314;2023-04-24T07:44:27;11.10;99.90
40676;DHT22;26359;48.750;9.314;2023-04-24T07:46:53;11.20;99.90
40676;DHT22;26359;48.750;9.314;2023-04-24T07:49:19;11.20;99.90
40676;DHT22;26359;48.750;9.314;2023-04-24T07:51:45;11.30;99.90
40676;DHT22;26359;48.750;9.314;2023-04-24T07:54:10;11.30;99.90
40676;DHT22;26359;48.750;9.314;2023-04-24T07:56:36;11.40;99.90
40676;DHT22;26359;48.750;9.314;2023-04-24T07:59:10;11.50;99.90
40676;DHT22;26359;48.750;9.314;2023-04-24T08:01:36;11.70;99.90
40676;DHT22;26359;48.750;9.314;2023-04-24T08:04:11;11.90;99.90
40676;DHT22;26359;48.750;9.314;2023-04-24T08:06:37;11.90;99.90
40676;DHT22;26359;48.750;9.314;2023-04-24T08:09:03;11.90;99.90
40676;DHT22;26359;48.750;9.314;2023-04-24T08:11:28;11.80;99.90
40676;DHT22;26359;48.750;9.314;2023-04-24T08:13:57;11.70;99.90
40676;DHT22;26359;48.750;9.314;2023-04-24T08:16:41;11.60;99.90
40676;DHT22;26359;48.750;9.314;2023-04-24T08:19:08;11.50;99.90
40676;DHT22;26359;48.750;9.314;2023-04-24T08:21:35;11.60;99.90
40676;DHT22;26359;48.750;9.314;2023-04-24T08:24:01;11.60;99.90
40676;DHT22;26359;48.750;9.314;2023-04-24T08:26:30;11.60;99.90
40676;DHT22;26359;48.750;9.314;2023-04-24T08:28:56;11.50;99.90
40676;DHT22;26359;48.750;9.314;2023-04-24T08:31:21;11.40;99.90
40676;DHT22;26359;48.750;9.314;2023-04-24T08:33:48;11.40;99.90
40676;DHT22;26359;48.750;9.314;2023-04-24T08:36:13;11.40;99.90
40676;DHT22;26359;48.750;9.314;2023-04-24T08:38:39;11.50;99.90
40676;DHT22;26359;48.750;9.314;2023-04-24T08:41:05;11.60;99.90
40676;DHT22;26359;48.750;9.314;2023-04-24T08:43:33;11.70;99.90
40676;DHT22;26359;48.750;9.314;2023-04-24T08:46:03;11.60;99.90
40676;DHT22;26359;48.750;9.314;2023-04-24T08:48:29;11.50;99.90
40676;DHT22;26359;48.750;9.314;2023-04-24T08:50:56;11.60;99.90
40676;DHT22;26359;48.750;9.314;2023-04-24T08:53:22;11.80;99.90
40676;DHT22;26359;48.750;9.314;2023-04-24T08:55:49;11.80;99.90
40676;DHT22;26359;48.750;9.314;2023-04-24T08:58:17;11.90;99.90
40676;DHT22;26359;48.750;9.314;2023-04-24T09:00:43;12.00;99.90
40676;DHT22;26359;48.750;9.314;2023-04-24T09:03:16;12.10;99.90
40676;DHT22;26359;48.750;9.314;2023-04-24T09:05:43;12.20;99.90
40676;DHT22;26359;48.750;9.314;2023-04-24T09:08:13;12.10;99.90
40676;DHT22;26359;48.750;9.314;2023-04-24T09:10:39;12.10;99.90
40676;DHT22;26359;48.750;9.314;2023-04-24T09:13:05;12.00;99.90
40676;DHT22;26359;48.750;9.314;2023-04-24T09:15:31;12.10;99.90
40676;DHT22;26359;48.750;9.314;2023-04-24T09:17:57;12.10;99.90
40676;DHT22;26359;48.750;9.314;2023-04-24T09:20:23;12.20;99.90
40676;DHT22;26359;48.750;9.314;2023-04-24T09:22:54;12.30;99.90
40676;DHT22;26359;48.750;9.314;2023-04-24T09:25:20;12.40;99.90
40676;DHT22;26359;48.750;9.314;2023-04-24T09:27:46;12.40;99.90
40676;DHT22;26359;48.750;9.314;2023-04-24T09:30:12;12.30;99.90
40676;DHT22;26359;48.750;9.314;2023-04-24T09:32:38;12.10;99.90
40676;DHT22;26359;48.750;9.314;2023-04-24T09:35:14;12.00;99.90
40676;DHT22;26359;48.750;9.314;2023-04-24T09:37:46;11.80;99.90
40676;DHT22;26359;48.750;9.314;2023-04-24T09:40:12;11.80;99.90
40676;DHT22;26359;48.750;9.314;2023-04-24T09:42:39;11.80;99.90
40676;DHT22;26359;48.750;9.314;2023-04-24T09:45:09;11.90;99.90
40676;DHT22;26359;48.750;9.314;2023-04-24T09:47:39;12.10;99.90
40676;DHT22;26359;48.750;9.314;2023-04-24T09:50:17;12.10;99.90
40676;DHT22;26359;48.750;9.314;2023-04-24T09:52:47;12.20;99.90
40676;DHT22;26359;48.750;9.314;2023-04-24T09:55:20;12.10;99.90
40676;DHT22;26359;48.750;9.314;2023-04-24T09:57:55;12.30;99.90
40676;DHT22;26359;48.750;9.314;2023-04-24T10:00:23;12.70;99.90
40676;DHT22;26359;48.750;9.314;2023-04-24T10:03:06;13.00;99.90
40676;DHT22;26359;48.750;9.314;2023-04-24T10:05:34;13.00;99.90
40676;DHT22;26359;48.750;9.314;2023-04-24T10:08:10;12.70;99.90
40676;DHT22;26359;48.750;9.314;2023-04-24T10:10:44;12.60;99.90
40676;DHT22;26359;48.750;9.314;2023-04-24T10:13:12;12.60;99.90
40676;DHT22;26359;48.750;9.314;2023-04-24T10:15:39;12.30;99.90
40676;DHT22;26359;48.750;9.314;2023-04-24T10:18:06;12.30;99.90
40676;DHT22;26359;48.750;9.314;2023-04-24T10:20:34;12.10;99.90
40676;DHT22;26359;48.750;9.314;2023-04-24T10:23:00;12.20;99.90
40676;DHT22;26359;48.750;9.314;2023-04-24T10:25:31;12.10;99.90
40676;DHT22;26359;48.750;9.314;2023-04-24T10:27:59;12.40;99.90
40676;DHT22;26359;48.750;9.314;2023-04-24T10:30:30;12.60;99.90
40676;DHT22;26359;48.750;9.314;2023-04-24T10:32:55;12.70;99.90
40676;DHT22;26359;48.750;9.314;2023-04-24T10:35:22;13.20;99.90
40676;DHT22;26359;48.750;9.314;2023-04-24T10:38:09;13.50;99.90
40676;DHT22;26359;48.750;9.314;2023-04-24T10:40:36;13.60;99.90
40676;DHT22;26359;48.750;9.314;2023-04-24T10:43:03;13.90;99.90
40676;DHT22;26359;48.750;9.314;2023-04-24T10:45:31;14.30;99.90
40676;DHT22;26359;48.750;9.314;2023-04-24T10:48:00;14.00;99.90
40676;DHT22;26359;48.750;9.314;2023-04-24T10:50:47;14.20;99.90
40676;DHT22;26359;48.750;9.314;2023-04-24T10:53:20;14.30;99.90
40676;DHT22;26359;48.750;9.314;2023-04-24T10:55:50;14.30;99.90
40676;DHT22;26359;48.750;9.314;2023-04-24T10:58:23;14.00;99.90
40676;DHT22;26359;48.750;9.314;2023-04-24T11:00:57;13.90;99.90
40676;DHT22;26359;48.750;9.314;2023-04-24T11:03:24;13.60;99.90
40676;DHT22;26359;48.750;9.314;2023-04-24T11:11:28;13.00;99.90
40676;DHT22;26359;48.750;9.314;2023-04-24T11:21:43;12.60;99.90
40676;DHT22;26359;48.750;9.314;2023-04-24T11:29:59;12.30;99.90
40676;DHT22;26359;48.750;9.314;2023-04-24T11:35:15;12.20;99.90
40676;DHT22;26359;48.750;9.314;2023-04-24T11:37:52;12.00;99.90
40676;DHT22;26359;48.750;9.314;2023-04-24T11:40:20;12.20;99.90
40676;DHT22;26359;48.750;9.314;2023-04-24T11:42:50;12.30;99.90
40676;DHT22;26359;48.750;9.314;2023-04-24T11:45:25;12.40;99.90
40676;DHT22;26359;48.750;9.314;2023-04-24T11:47:51;12.60;99.90
40676;DHT22;26359;48.750;9.314;2023-04-24T11:50:18;12.70;99.90
40676;DHT22;26359;48.750;9.314;2023-04-24T11:52:46;12.70;99.90
40676;DHT22;26359;48.750;9.314;2023-04-24T11:57:43;12.70;99.90
40676;DHT22;26359;48.750;9.314;2023-04-24T12:00:22;12.70;99.90
40676;DHT22;26359;48.750;9.314;2023-04-24T12:02:48;12.50;99.90
40676;DHT22;26359;48.750;9.314;2023-04-24T12:05:25;12.30;99.90
40676;DHT22;26359;48.750;9.314;2023-04-24T12:07:52;12.10;99.90
40676;DHT22;26359;48.750;9.314;2023-04-24T12:10:22;12.20;99.90
40676;DHT22;26359;48.750;9.314;2023-04-24T12:12:49;12.30;99.90
40676;DHT22;26359;48.750;9.314;2023-04-24T12:15:17;12.40;99.90
40676;DHT22;26359;48.750;9.314;2023-04-24T12:17:43;12.50;99.90
40676;DHT22;26359;48.750;9.314;2023-04-24T12:20:09;12.60;99.90
40676;DHT22;26359;48.750;9.314;2023-04-24T12:22:55;12.70;99.90
40676;DHT22;26359;48.750;9.314;2023-04-24T12:25:23;13.10;99.90
40676;DHT22;26359;48.750;9.314;2023-04-24T12:30:32;13.00;99.90
40676;DHT22;26359;48.750;9.314;2023-04-24T12:32:59;12.90;99.90
40676;DHT22;26359;48.750;9.314;2023-04-24T12:35:27;12.80;99.90
40676;DHT22;26359;48.750;9.314;2023-04-24T12:37:53;12.60;99.90
40676;DHT22;26359;48.750;9.314;2023-04-24T12:40:20;12.50;99.90
40676;DHT22;26359;48.750;9.314;2023-04-24T12:42:50;12.30;99.90
40676;DHT22;26359;48.750;9.314;2023-04-24T12:45:18;12.30;99.90
40676;DHT22;26359;48.750;9.314;2023-04-24T12:47:45;12.20;99.90
40676;DHT22;26359;48.750;9.314;2023-04-24T12:50:12;12.30;99.90
40676;DHT22;26359;48.750;9.314;2023-04-24T12:52:38;12.40;99.90
40676;DHT22;26359;48.750;9.314;2023-04-24T12:55:05;12.40;99.90
40676;DHT22;26359;48.750;9.314;2023-04-24T12:57:34;12.50;99.90
40676;DHT22;26359;48.750;9.314;2023-04-24T13:00:00;12.60;99.90
40676;DHT22;26359;48.750;9.314;2023-04-24T13:02:28;12.50;99.90
40676;DHT22;26359;48.750;9.314;2023-04-24T13:04:54;12.50;99.90
40676;DHT22;26359;48.750;9.314;2023-04-24T13:07:20;12.40;99.90
40676;DHT22;26359;48.750;9.314;2023-04-24T13:09:47;12.30;99.90
40676;DHT22;26359;48.750;9.314;2023-04-24T13:12:12;12.10;99.90
40676;DHT22;26359;48.750;9.314;2023-04-24T13:14:38;11.90;99.90
40676;DHT22;26359;48.750;9.314;2023-04-24T13:17:04;11.70;99.90
40676;DHT22;26359;48.750;9.314;2023-04-24T13:19:35;11.50;99.90
40676;DHT22;26359;48.750;9.314;2023-04-24T13:22:01;11.50;99.90
40676;DHT22;26359;48.750;9.314;2023-04-24T13:24:27;11.60;99.90
40676;DHT22;26359;48.750;9.314;2023-04-24T13:26:53;11.70;99.90
40676;DHT22;26359;48.750;9.314;2023-04-24T13:29:19;11.80;99.90
40676;DHT22;26359;48.750;9.314;2023-04-24T13:31:46;11.90;99.90
40676;DHT22;26359;48.750;9.314;2023-04-24T13:34:13;12.10;99.90
40676;DHT22;26359;48.750;9.314;2023-04-24T13:36:38;12.20;99.90
40676;DHT22;26359;48.750;9.314;2023-04-24T13:39:05;12.40;99.90
40676;DHT22;26359;48.750;9.314;2023-04-24T13:41:32;12.50;99.90
40676;DHT22;26359;48.750;9.314;2023-04-24T13:43:58;12.60;99.90
40676;DHT22;26359;48.750;9.314;2023-04-24T13:46:23;12.60;99.90
40676;DHT22;26359;48.750;9.314;2023-04-24T13:48:49;12.60;99.90
40676;DHT22;26359;48.750;9.314;2023-04-24T13:51:14;12.70;99.90
40676;DHT22;26359;48.750;9.314;2023-04-24T13:53:40;12.70;99.90
40676;DHT22;26359;48.750;9.314;2023-04-24T13:56:06;12.50;99.90
40676;DHT22;26359;48.750;9.314;2023-04-24T13:58:31;12.30;99.90
40676;DHT22;26359;48.750;9.314;2023-04-24T14:00:57;12.10;99.90
40676;DHT22;26359;48.750;9.314;2023-04-24T14:03:23;12.00;99.90
40676;DHT22;26359;48.750;9.314;2023-04-24T14:05:49;11.90;99.90
40676;DHT22;26359;48.750;9.314;2023-04-24T14:08:15;11.80;99.90
40676;DHT22;26359;48.750;9.314;2023-04-24T14:10:40;11.40;99.90
40676;DHT22;26359;48.750;9.314;2023-04-24T14:13:06;10.80;99.90
40676;DHT22;26359;48.750;9.314;2023-04-24T14:15:31;10.50;99.90
40676;DHT22;26359;48.750;9.314;2023-04-24T14:17:57;10.50;99.90
40676;DHT22;26359;48.750;9.314;2023-04-24T14:20:23;10.70;99.90
40676;DHT22;26359;48.750;9.314;2023-04-24T14:22:48;10.90;99.90
40676;DHT22;26359;48.750;9.314;2023-04-24T14:25:14;11.30;99.90
40676;DHT22;26359;48.750;9.314;2023-04-24T14:27:40;11.80;99.90
40676;DHT22;26359;48.750;9.314;2023-04-24T14:30:06;12.30;99.90
40676;DHT22;26359;48.750;9.314;2023-04-24T14:32:32;12.60;99.90
40676;DHT22;26359;48.750;9.314;2023-04-24T14:34:58;12.70;99.90
40676;DHT22;26359;48.750;9.314;2023-04-24T14:37:23;12.20;99.90
40676;DHT22;26359;48.750;9.314;2023-04-24T14:39:49;12.00;99.90
40676;DHT22;26359;48.750;9.314;2023-04-24T14:42:14;11.80;99.90
40676;DHT22;26359;48.750;9.314;2023-04-24T14:44:42;11.70;99.90
40676;DHT22;26359;48.750;9.314;2023-04-24T14:47:07;11.50;99.90
40676;DHT22;26359;48.750;9.314;2023-04-24T14:49:33;11.40;99.90
40676;DHT22;26359;48.750;9.314;2023-04-24T14:51:59;11.40;99.90
40676;DHT22;26359;48.750;9.314;2023-04-24T14:54:24;11.60;99.90
40676;DHT22;26359;48.750;9.314;2023-04-24T14:56:50;11.80;99.90
40676;DHT22;26359;48.750;9.314;2023-04-24T14:59:16;12.30;99.90
40676;DHT22;26359;48.750;9.314;2023-04-24T15:01:41;12.90;99.90
40676;DHT22;26359;48.750;9.314;2023-04-24T15:04:07;13.50;99.90
40676;DHT22;26359;48.750;9.314;2023-04-24T15:06:32;13.30;99.90
40676;DHT22;26359;48.750;9.314;2023-04-24T15:08:58;13.10;99.90
40676;DHT22;26359;48.750;9.314;2023-04-24T15:11:24;13.00;99.90
40676;DHT22;26359;48.750;9.314;2023-04-24T15:13:49;13.00;99.90
40676;DHT22;26359;48.750;9.314;2023-04-24T15:16:15;13.20;99.90
40676;DHT22;26359;48.750;9.314;2023-04-24T15:18:41;13.80;99.90
40676;DHT22;26359;48.750;9.314;2023-04-24T15:21:07;14.30;99.90
40676;DHT22;26359;48.750;9.314;2023-04-24T15:23:32;14.50;99.90
40676;DHT22;26359;48.750;9.314;2023-04-24T15:25:58;14.30;99.90
40676;DHT22;26359;48.750;9.314;2023-04-24T15:28:24;13.80;99.90
40676;DHT22;26359;48.750;9.314;2023-04-24T15:30:50;13.50;99.90
40676;DHT22;26359;48.750;9.314;2023-04-24T15:33:16;13.40;99.90
40676;DHT22;26359;48.750;9.314;2023-04-24T15:35:41;13.20;99.90
40676;DHT22;26359;48.750;9.314;2023-04-24T15:38:07;13.00;99.90
40676;DHT22;26359;48.750;9.314;2023-04-24T15:40:33;12.80;99.90
40676;DHT22;26359;48.750;9.314;2023-04-24T15:42:58;12.60;99.90
40676;DHT22;26359;48.750;9.314;2023-04-24T15:45:24;12.50;99.90
40676;DHT22;26359;48.750;9.314;2023-04-24T15:47:50;12.40;99.90
40676;DHT22;26359;48.750;9.314;2023-04-24T15:50:16;12.20;99.90
40676;DHT22;26359;48.750;9.314;2023-04-24T15:52:43;12.10;99.90
40676;DHT22;26359;48.750;9.314;2023-04-24T15:55:08;11.90;99.90